Time;durP1;ratioP1;P1;durP2;ratioP2;P2;SDS_P1;SDS_P2;PMS_P1;PMS_P2;Temp;Humidity;BMP_temperature;BMP_pressure;BME280_temperature;BME280_humidity;BME280_pressure;Samples;Min_cycle;Max_cycle;Signal;HPM_P1;HPM_P2
2022/10/01 00:02:01;;;;;;;4.60;3.40;;;;;;;;;;5116599;28;20494;-69
2022/10/01 00:04:28;;;;;;;11.03;3.70;;;;;;;;;;5117205;28;20499;-68
2022/10/01 00:06:58;;;;;;;3.40;2.60;;;;;;;;;;5116911;28;20850;-69
2022/10/01 00:09:25;;;;;;;3.70;2.77;;;;;;;;;;5115721;28;20458;-68
2022/10/01 00:11:52;;;;;;;9.10;3.17;;;;;;;;;;5135395;27;20457;-69
2022/10/01 00:14:20;;;;;;;3.67;2.53;;;;;;;;;;5137765;27;20442;-69
2022/10/01 00:16:48;;;;;;;3.73;3.07;;;;;;;;;;5136877;27;20454;-68
2022/10/01 00:19:16;;;;;;;4.00;2.80;;;;;;;;;;5136406;27;20457;-69
2022/10/01 00:21:43;;;;;;;5.63;3.13;;;;;;;;;;5121928;28;20441;-69
2022/10/01 00:24:11;;;;;;;3.77;2.60;;;;;;;;;;5132065;27;20727;-68
2022/10/01 00:26:39;;;;;;;3.70;2.33;;;;;;;;;;5124409;28;20450;-69
2022/10/01 00:29:06;;;;;;;4.03;3.10;;;;;;;;;;5136257;27;20454;-69
2022/10/01 00:31:35;;;;;;;4.37;3.20;;;;;;;;;;5136222;27;20525;-69
2022/10/01 00:34:03;;;;;;;6.23;3.70;;;;;;;;;;5135073;27;20454;-69
2022/10/01 00:36:31;;;;;;;12.40;2.90;;;;;;;;;;5137049;27;20438;-69
2022/10/01 00:38:59;;;;;;;5.23;2.67;;;;;;;;;;5121983;28;20569;-68
2022/10/01 00:41:27;;;;;;;4.90;2.50;;;;;;;;;;5116531;28;20439;-68
2022/10/01 00:43:56;;;;;;;5.57;3.10;;;;;;;;;;5115299;28;20828;-69
2022/10/01 00:46:26;;;;;;;3.93;2.50;;;;;;;;;;5115142;28;20443;-68
2022/10/01 00:48:57;;;;;;;3.60;2.70;;;;;;;;;;5114251;28;20459;-69
2022/10/01 00:51:26;;;;;;;3.90;2.73;;;;;;;;;;5115571;28;20457;-69
2022/10/01 00:53:55;;;;;;;4.80;2.53;;;;;;;;;;5115187;28;21078;-68
2022/10/01 00:56:23;;;;;;;3.90;2.57;;;;;;;;;;5115021;28;20531;-68
2022/10/01 00:58:54;;;;;;;7.20;2.77;;;;;;;;;;5116098;28;20458;-68
2022/10/01 01:01:23;;;;;;;5.20;2.53;;;;;;;;;;5114254;28;20438;-68
2022/10/01 01:03:53;;;;;;;5.50;3.60;;;;;;;;;;5115069;28;20543;-68
2022/10/01 01:06:20;;;;;;;6.73;3.40;;;;;;;;;;5114649;28;20475;-68
2022/10/01 01:08:53;;;;;;;4.70;2.70;;;;;;;;;;5115459;28;20498;-69
2022/10/01 01:11:25;;;;;;;5.83;3.00;;;;;;;;;;5114203;28;20451;-68
2022/10/01 01:13:55;;;;;;;5.37;2.80;;;;;;;;;;5113780;28;20459;-68
2022/10/01 01:16:25;;;;;;;3.60;2.73;;;;;;;;;;5114780;28;20485;-68
2022/10/01 01:18:54;;;;;;;3.20;2.50;;;;;;;;;;5115378;28;20490;-69
2022/10/01 01:21:25;;;;;;;6.97;3.40;;;;;;;;;;5116290;28;20939;-69
2022/10/01 01:24:09;;;;;;;4.17;2.47;;;;;;;;;;5116104;28;20861;-68
2022/10/01 01:26:41;;;;;;;7.60;2.97;;;;;;;;;;5120508;27;20516;-69
2022/10/01 01:29:15;;;;;;;3.57;2.40;;;;;;;;;;5115564;28;20501;-68
2022/10/01 01:31:45;;;;;;;2.93;2.17;;;;;;;;;;5114864;28;20450;-69
2022/10/01 01:34:15;;;;;;;2.77;2.33;;;;;;;;;;5113666;28;20879;-68
2022/10/01 01:36:47;;;;;;;3.90;2.70;;;;;;;;;;5116367;28;20494;-69
2022/10/01 01:39:19;;;;;;;4.23;2.77;;;;;;;;;;5115172;28;20468;-68
2022/10/01 01:41:48;;;;;;;3.27;2.40;;;;;;;;;;5115538;28;20516;-68
2022/10/01 01:44:18;;;;;;;4.60;2.37;;;;;;;;;;5116291;28;20459;-68
2022/10/01 01:46:48;;;;;;;3.60;2.73;;;;;;;;;;5114816;28;20539;-69
2022/10/01 01:49:16;;;;;;;7.83;3.13;;;;;;;;;;5115560;28;20458;-69
2022/10/01 01:51:47;;;;;;;4.93;2.60;;;;;;;;;;5115987;28;20443;-69
2022/10/01 01:54:15;;;;;;;4.47;2.57;;;;;;;;;;5115175;28;20505;-68
2022/10/01 01:56:43;;;;;;;4.30;2.40;;;;;;;;;;5115369;28;20701;-69
2022/10/01 01:59:10;;;;;;;2.80;2.23;;;;;;;;;;5115345;28;20485;-68
2022/10/01 02:01:39;;;;;;;3.43;2.20;;;;;;;;;;5115860;28;20447;-68
2022/10/01 02:04:09;;;;;;;3.80;2.70;;;;;;;;;;5115632;28;20465;-69
2022/10/01 02:06:47;;;;;;;3.53;2.30;;;;;;;;;;5115582;28;20460;-68
2022/10/01 02:09:26;;;;;;;5.40;3.00;;;;;;;;;;5115806;28;20489;-69
2022/10/01 02:11:57;;;;;;;2.63;2.10;;;;;;;;;;5115546;28;20541;-69
2022/10/01 02:14:29;;;;;;;4.00;2.47;;;;;;;;;;5115140;28;20451;-69
2022/10/01 02:17:00;;;;;;;4.10;2.30;;;;;;;;;;5115251;28;20880;-69
2022/10/01 02:19:32;;;;;;;3.60;2.40;;;;;;;;;;5113784;28;20447;-69
2022/10/01 02:22:01;;;;;;;3.37;2.20;;;;;;;;;;5114529;28;20486;-69
2022/10/01 02:24:33;;;;;;;3.90;2.50;;;;;;;;;;5114664;28;20439;-69
2022/10/01 02:27:02;;;;;;;8.30;2.00;;;;;;;;;;5114563;28;20455;-68
2022/10/01 02:29:29;;;;;;;3.27;2.10;;;;;;;;;;5114886;28;20500;-69
2022/10/01 02:31:58;;;;;;;3.27;2.33;;;;;;;;;;5115263;28;20888;-70
2022/10/01 02:34:27;;;;;;;3.10;2.23;;;;;;;;;;5114993;28;20489;-68
2022/10/01 02:36:55;;;;;;;2.73;1.90;;;;;;;;;;5115208;28;20538;-69
2022/10/01 02:39:25;;;;;;;2.23;1.47;;;;;;;;;;5117116;28;20454;-69
2022/10/01 02:41:54;;;;;;;6.80;2.43;;;;;;;;;;5118201;28;20453;-69
2022/10/01 02:44:24;;;;;;;3.97;2.73;;;;;;;;;;5118041;28;20889;-68
2022/10/01 02:46:53;;;;;;;5.13;2.37;;;;;;;;;;5117405;28;20516;-68
2022/10/01 02:49:21;;;;;;;4.63;1.87;;;;;;;;;;5117239;28;20523;-68
2022/10/01 02:51:53;;;;;;;5.87;2.40;;;;;;;;;;5116771;28;20457;-68
2022/10/01 02:54:25;;;;;;;4.50;2.23;;;;;;;;;;5117178;28;20459;-69
2022/10/01 02:59:38;;;;;;;3.93;2.17;;;;;;;;;;5116736;28;20441;-69
2022/10/01 03:02:05;;;;;;;3.17;2.63;;;;;;;;;;5116572;28;20543;-69
2022/10/01 03:04:33;;;;;;;5.00;2.23;;;;;;;;;;5116881;28;20469;-69
2022/10/01 03:07:03;;;;;;;5.00;2.37;;;;;;;;;;5116413;28;20450;-69
2022/10/01 03:09:30;;;;;;;3.30;2.53;;;;;;;;;;5116854;28;20439;-67
2022/10/01 03:11:58;;;;;;;4.20;2.30;;;;;;;;;;5116897;28;20459;-68
2022/10/01 03:14:25;;;;;;;4.33;3.00;;;;;;;;;;5118185;28;20479;-68
2022/10/01 03:16:53;;;;;;;7.30;2.43;;;;;;;;;;5117251;28;20474;-68
2022/10/01 03:19:20;;;;;;;6.83;3.27;;;;;;;;;;5116948;28;20616;-68
2022/10/01 03:21:48;;;;;;;5.37;2.27;;;;;;;;;;5117368;28;20447;-68
2022/10/01 03:24:16;;;;;;;4.30;2.47;;;;;;;;;;5116911;28;20574;-67
2022/10/01 03:26:44;;;;;;;2.90;2.13;;;;;;;;;;5116713;28;20450;-68
2022/10/01 03:29:12;;;;;;;3.70;2.20;;;;;;;;;;5116532;28;20462;-68
2022/10/01 03:31:39;;;;;;;3.67;2.60;;;;;;;;;;5116096;28;20443;-69
2022/10/01 03:34:06;;;;;;;2.90;2.27;;;;;;;;;;5117567;28;20572;-69
2022/10/01 03:36:33;;;;;;;3.37;2.10;;;;;;;;;;5118637;28;20535;-68
2022/10/01 03:39:01;;;;;;;4.23;2.40;;;;;;;;;;5138395;27;20556;-68
2022/10/01 03:41:29;;;;;;;3.87;2.23;;;;;;;;;;5138468;27;20825;-69
2022/10/01 03:43:56;;;;;;;5.83;2.70;;;;;;;;;;5137809;27;20501;-68
2022/10/01 03:46:23;;;;;;;4.23;2.10;;;;;;;;;;5137128;27;20530;-69
2022/10/01 03:48:50;;;;;;;2.60;2.00;;;;;;;;;;5136737;27;20465;-69
2022/10/01 03:51:19;;;;;;;4.60;1.80;;;;;;;;;;5135975;27;20578;-69
2022/10/01 03:53:47;;;;;;;10.77;3.37;;;;;;;;;;5136746;27;20743;-68
2022/10/01 03:56:15;;;;;;;3.67;2.10;;;;;;;;;;5137129;27;20452;-69
2022/10/01 03:58:44;;;;;;;4.60;2.43;;;;;;;;;;5136778;27;20700;-69
2022/10/01 04:01:11;;;;;;;3.70;2.40;;;;;;;;;;5137908;27;20533;-69
2022/10/01 04:03:39;;;;;;;5.90;2.57;;;;;;;;;;5136381;27;20481;-68
2022/10/01 04:06:06;;;;;;;4.40;2.20;;;;;;;;;;5137209;27;20557;-68
2022/10/01 04:08:33;;;;;;;3.50;2.00;;;;;;;;;;5136931;27;20514;-69
2022/10/01 04:11:00;;;;;;;3.27;1.80;;;;;;;;;;5136847;27;20537;-69
2022/10/01 04:13:31;;;;;;;2.70;1.60;;;;;;;;;;5137183;27;20954;-69
2022/10/01 04:15:58;;;;;;;4.70;2.00;;;;;;;;;;5136845;27;20582;-68
2022/10/01 04:18:26;;;;;;;4.70;2.53;;;;;;;;;;5137310;27;20457;-69
2022/10/01 04:20:55;;;;;;;2.87;1.57;;;;;;;;;;5138008;27;20450;-68
2022/10/01 04:23:26;;;;;;;2.50;1.70;;;;;;;;;;5137913;27;20508;-68
2022/10/01 04:25:56;;;;;;;3.67;1.87;;;;;;;;;;5135796;27;20485;-68
2022/10/01 04:28:23;;;;;;;3.10;2.03;;;;;;;;;;5136368;27;20489;-68
2022/10/01 04:31:23;;;;;;;3.07;1.87;;;;;;;;;;5136000;27;20545;-68
2022/10/01 04:33:42;;;;;;;4.47;1.97;;;;;;;;;;5136108;27;20517;-69
2022/10/01 04:36:09;;;;;;;4.63;2.17;;;;;;;;;;5137298;27;20805;-69
2022/10/01 04:38:36;;;;;;;4.07;2.40;;;;;;;;;;5122083;27;20470;-68
2022/10/01 04:41:04;;;;;;;6.47;2.10;;;;;;;;;;5116544;27;20506;-68
2022/10/01 04:43:31;;;;;;;4.60;2.27;;;;;;;;;;5117710;27;20486;-68
2022/10/01 04:45:59;;;;;;;4.03;1.80;;;;;;;;;;5115748;27;20499;-68
2022/10/01 04:48:29;;;;;;;3.43;2.10;;;;;;;;;;5117082;27;20706;-68
2022/10/01 04:50:56;;;;;;;2.43;1.97;;;;;;;;;;5116603;27;20453;-68
2022/10/01 04:53:23;;;;;;;2.67;1.77;;;;;;;;;;5116035;27;20603;-68
2022/10/01 04:55:50;;;;;;;4.80;1.90;;;;;;;;;;5115593;27;20451;-68
2022/10/01 04:58:18;;;;;;;2.53;1.80;;;;;;;;;;5115961;27;20461;-68
2022/10/01 05:00:45;;;;;;;3.10;2.50;;;;;;;;;;5114532;27;20459;-68
2022/10/01 05:03:13;;;;;;;5.13;2.20;;;;;;;;;;5115394;27;20933;-68
2022/10/01 05:05:40;;;;;;;5.23;2.60;;;;;;;;;;5115584;27;20473;-69
2022/10/01 05:08:07;;;;;;;3.27;2.00;;;;;;;;;;5116048;27;20455;-69
2022/10/01 05:10:35;;;;;;;3.20;1.90;;;;;;;;;;5116299;27;20465;-69
2022/10/01 05:13:02;;;;;;;3.70;2.40;;;;;;;;;;5115647;27;20450;-68
2022/10/01 05:15:29;;;;;;;3.80;2.10;;;;;;;;;;5115688;27;20588;-69
2022/10/01 05:17:57;;;;;;;6.20;1.90;;;;;;;;;;5115099;27;20437;-69
2022/10/01 05:20:25;;;;;;;4.10;2.50;;;;;;;;;;5114521;27;20465;-68
2022/10/01 05:22:53;;;;;;;3.80;2.63;;;;;;;;;;5114787;27;20486;-68
2022/10/01 05:25:20;;;;;;;3.93;2.10;;;;;;;;;;5114558;27;20458;-69
2022/10/01 05:27:50;;;;;;;3.20;2.13;;;;;;;;;;5114694;28;20953;-69
2022/10/01 05:30:22;;;;;;;3.33;2.23;;;;;;;;;;5115454;28;20461;-68
2022/10/01 05:32:56;;;;;;;2.80;2.10;;;;;;;;;;5115255;28;20450;-69
2022/10/01 05:35:23;;;;;;;3.57;2.57;;;;;;;;;;5113386;28;20455;-68
2022/10/01 05:37:53;;;;;;;4.83;2.37;;;;;;;;;;5115145;28;20745;-69
2022/10/01 05:40:20;;;;;;;4.20;2.70;;;;;;;;;;5114104;28;20978;-68
2022/10/01 05:42:47;;;;;;;4.57;1.97;;;;;;;;;;5114282;28;20569;-68
2022/10/01 05:45:16;;;;;;;4.07;2.47;;;;;;;;;;5115119;28;20534;-68
2022/10/01 05:47:43;;;;;;;6.80;3.30;;;;;;;;;;5129593;27;20516;-68
2022/10/01 05:50:10;;;;;;;3.83;2.63;;;;;;;;;;5134323;27;20823;-68
2022/10/01 05:52:37;;;;;;;5.63;2.90;;;;;;;;;;5134367;27;20665;-69
2022/10/01 05:55:05;;;;;;;16.17;4.03;;;;;;;;;;5134107;27;20852;-69
2022/10/01 05:57:33;;;;;;;5.30;3.03;;;;;;;;;;5134128;27;20538;-69
2022/10/01 06:00:00;;;;;;;4.87;3.27;;;;;;;;;;5132801;27;20458;-68
2022/10/01 06:02:27;;;;;;;5.90;2.90;;;;;;;;;;5133424;27;20554;-68
2022/10/01 06:04:54;;;;;;;4.60;2.87;;;;;;;;;;5133962;27;20442;-69
2022/10/01 06:07:21;;;;;;;5.03;2.80;;;;;;;;;;5133933;27;20457;-68
2022/10/01 06:09:48;;;;;;;5.23;3.20;;;;;;;;;;5133694;27;20449;-69
2022/10/01 06:12:16;;;;;;;3.73;2.90;;;;;;;;;;5133727;27;20454;-69
2022/10/01 06:14:43;;;;;;;4.33;2.67;;;;;;;;;;5133647;27;20859;-69
2022/10/01 06:17:10;;;;;;;4.93;3.53;;;;;;;;;;5118697;28;20563;-68
2022/10/01 06:19:37;;;;;;;3.97;3.03;;;;;;;;;;5117213;28;20523;-69
2022/10/01 06:22:05;;;;;;;9.50;3.83;;;;;;;;;;5118861;28;20454;-69
2022/10/01 06:24:32;;;;;;;11.60;3.57;;;;;;;;;;5132627;27;20982;-69
2022/10/01 06:26:59;;;;;;;7.17;3.30;;;;;;;;;;5138769;27;20470;-69
2022/10/01 06:29:27;;;;;;;6.07;2.73;;;;;;;;;;5135623;27;20745;-70
2022/10/01 06:31:55;;;;;;;6.70;3.10;;;;;;;;;;5134832;27;20478;-70
2022/10/01 06:34:22;;;;;;;5.97;3.40;;;;;;;;;;5117871;28;20523;-70
2022/10/01 06:36:49;;;;;;;8.27;2.93;;;;;;;;;;5118216;28;20454;-70
2022/10/01 06:39:16;;;;;;;3.80;2.93;;;;;;;;;;5117312;28;20520;-70
2022/10/01 06:41:43;;;;;;;4.83;3.30;;;;;;;;;;5117072;28;20443;-70
2022/10/01 06:44:10;;;;;;;4.80;3.27;;;;;;;;;;5121530;28;20918;-70
2022/10/01 06:46:38;;;;;;;3.07;2.67;;;;;;;;;;5118138;28;20796;-70
2022/10/01 06:49:05;;;;;;;3.70;2.50;;;;;;;;;;5117019;28;20486;-70
2022/10/01 06:54:17;;;;;;;4.37;2.70;;;;;;;;;;5131819;28;20502;-70
2022/10/01 06:56:46;;;;;;;3.70;2.60;;;;;;;;;;5118957;27;20882;-71
2022/10/01 06:59:16;;;;;;;3.80;2.23;;;;;;;;;;5116012;28;21037;-71
2022/10/01 07:01:44;;;;;;;3.30;2.40;;;;;;;;;;5116647;28;20453;-70
2022/10/01 07:04:11;;;;;;;3.90;2.60;;;;;;;;;;5116448;27;20513;-70
2022/10/01 07:06:39;;;;;;;5.23;2.93;;;;;;;;;;5116132;28;20446;-71
2022/10/01 07:09:06;;;;;;;3.77;2.70;;;;;;;;;;5131890;27;20453;-71
2022/10/01 07:11:33;;;;;;;4.60;2.70;;;;;;;;;;5135553;27;20442;-71
2022/10/01 07:14:00;;;;;;;6.73;3.03;;;;;;;;;;5134110;27;21207;-71
2022/10/01 07:16:27;;;;;;;4.00;2.50;;;;;;;;;;5125021;28;20473;-70
2022/10/01 07:18:56;;;;;;;3.27;2.70;;;;;;;;;;5128955;28;20664;-71
2022/10/01 07:21:23;;;;;;;4.97;3.40;;;;;;;;;;5124873;27;20477;-71
2022/10/01 07:23:50;;;;;;;5.90;2.80;;;;;;;;;;5133036;27;20481;-71
2022/10/01 07:26:17;;;;;;;3.93;2.63;;;;;;;;;;5131812;27;20528;-71
2022/10/01 07:28:45;;;;;;;7.60;3.07;;;;;;;;;;5126487;28;20840;-71
2022/10/01 07:31:12;;;;;;;3.47;2.30;;;;;;;;;;5135729;27;20918;-70
2022/10/01 07:33:39;;;;;;;3.33;2.40;;;;;;;;;;5121451;28;20941;-70
2022/10/01 07:36:12;;;;;;;3.00;1.80;;;;;;;;;;5114593;28;20459;-70
2022/10/01 07:38:39;;;;;;;3.07;2.17;;;;;;;;;;5116860;28;20554;-70
2022/10/01 07:41:09;;;;;;;2.83;2.23;;;;;;;;;;5120773;27;20482;-70
2022/10/01 07:43:41;;;;;;;5.70;3.33;;;;;;;;;;5120601;27;20499;-70
2022/10/01 07:46:08;;;;;;;3.27;2.40;;;;;;;;;;5119229;27;20446;-71
2022/10/01 07:48:35;;;;;;;3.50;2.47;;;;;;;;;;5134210;27;20514;-70
2022/10/01 07:51:02;;;;;;;3.73;2.37;;;;;;;;;;5124768;27;20461;-71
2022/10/01 07:53:30;;;;;;;4.90;2.33;;;;;;;;;;5131166;28;20531;-70
2022/10/01 07:56:01;;;;;;;3.27;2.40;;;;;;;;;;5130278;27;20473;-70
2022/10/01 07:58:28;;;;;;;5.00;2.30;;;;;;;;;;5134281;27;20482;-70
2022/10/01 08:00:57;;;;;;;4.07;2.30;;;;;;;;;;5123105;27;20450;-70
2022/10/01 08:03:24;;;;;;;10.10;3.47;;;;;;;;;;5113897;28;20483;-70
2022/10/01 08:05:52;;;;;;;2.73;2.23;;;;;;;;;;5115181;28;20489;-70
2022/10/01 08:08:19;;;;;;;2.80;2.23;;;;;;;;;;5113985;28;20478;-70
2022/10/01 08:10:48;;;;;;;2.97;2.10;;;;;;;;;;5113501;28;20447;-70
2022/10/01 08:13:23;;;;;;;5.10;2.47;;;;;;;;;;5113413;28;20466;-70
2022/10/01 08:15:53;;;;;;;3.53;1.90;;;;;;;;;;5109860;28;20454;-70
2022/10/01 08:18:20;;;;;;;4.57;2.60;;;;;;;;;;5113408;28;20459;-70
2022/10/01 08:20:48;;;;;;;6.80;2.10;;;;;;;;;;5120188;28;20446;-70
2022/10/01 08:23:15;;;;;;;4.17;2.47;;;;;;;;;;5118606;28;20500;-70
2022/10/01 08:25:43;;;;;;;4.10;2.67;;;;;;;;;;5122054;27;20459;-71
2022/10/01 08:28:11;;;;;;;3.60;2.53;;;;;;;;;;5113699;28;20558;-71
2022/10/01 08:30:39;;;;;;;9.30;2.93;;;;;;;;;;5114240;28;20466;-71
2022/10/01 08:33:06;;;;;;;3.27;2.10;;;;;;;;;;5113411;28;20462;-71
2022/10/01 08:35:34;;;;;;;7.03;2.93;;;;;;;;;;5117862;27;20469;-71
2022/10/01 08:38:02;;;;;;;3.50;2.50;;;;;;;;;;5117620;27;20491;-71
2022/10/01 08:40:37;;;;;;;4.20;2.43;;;;;;;;;;5112720;27;20445;-71
2022/10/01 08:43:05;;;;;;;3.43;2.00;;;;;;;;;;5115918;27;20848;-71
2022/10/01 08:45:41;;;;;;;4.10;2.60;;;;;;;;;;5134425;27;20494;-69
2022/10/01 08:48:24;;;;;;;3.63;2.20;;;;;;;;;;5133494;27;20880;-71
2022/10/01 08:50:56;;;;;;;2.50;1.87;;;;;;;;;;5130010;27;20442;-70
2022/10/01 08:53:33;;;;;;;3.13;1.80;;;;;;;;;;5133993;27;20514;-71
2022/10/01 08:56:21;;;;;;;5.17;2.17;;;;;;;;;;5133789;27;20437;-70
2022/10/01 08:59:01;;;;;;;5.33;2.90;;;;;;;;;;5125760;28;20552;-69
2022/10/01 09:01:36;;;;;;;5.30;1.70;;;;;;;;;;5122851;27;20450;-69
2022/10/01 09:04:15;;;;;;;3.30;1.60;;;;;;;;;;5115458;28;20497;-70
2022/10/01 09:06:53;;;;;;;4.60;2.13;;;;;;;;;;5114518;28;20508;-70
2022/10/01 09:09:28;;;;;;;2.77;1.93;;;;;;;;;;5113348;28;20689;-71
2022/10/01 09:12:05;;;;;;;4.70;3.03;;;;;;;;;;5113480;28;20437;-69
2022/10/01 09:14:53;;;;;;;3.87;2.70;;;;;;;;;;5113826;28;20868;-70
2022/10/01 09:17:34;;;;;;;2.70;1.70;;;;;;;;;;5115696;28;20474;-70
2022/10/01 09:20:07;;;;;;;2.97;1.93;;;;;;;;;;5118692;28;20467;-71
2022/10/01 09:22:44;;;;;;;4.13;2.23;;;;;;;;;;5114671;28;20496;-70
2022/10/01 09:25:15;;;;;;;3.10;2.03;;;;;;;;;;5115766;27;20510;-71
2022/10/01 09:27:46;;;;;;;2.97;1.93;;;;;;;;;;5114723;28;20466;-69
2022/10/01 09:30:20;;;;;;;5.50;2.67;;;;;;;;;;5115520;28;20454;-70
2022/10/01 09:32:55;;;;;;;3.90;2.50;;;;;;;;;;5121072;28;20457;-72
2022/10/01 09:35:42;;;;;;;5.40;2.30;;;;;;;;;;5129967;28;20962;-69
2022/10/01 09:41:09;;;;;;;4.67;2.90;;;;;;;;;;5094915;27;20445;-70
2022/10/01 09:43:51;;;;;;;3.80;2.93;;;;;;;;;;5133293;27;20484;-70
2022/10/01 09:46:18;;;;;;;10.20;5.03;;;;;;;;;;5125987;27;20558;-71
2022/10/01 09:48:49;;;;;;;15.40;5.33;;;;;;;;;;5113331;28;21124;-69
2022/10/01 09:51:22;;;;;;;11.57;7.63;;;;;;;;;;5112875;27;20465;-69
2022/10/01 09:53:59;;;;;;;5.83;3.13;;;;;;;;;;5111706;27;20481;-71
2022/10/01 09:56:28;;;;;;;14.60;9.43;;;;;;;;;;5110926;28;20454;-70
2022/10/01 09:58:58;;;;;;;12.80;5.60;;;;;;;;;;5112931;28;20466;-70
2022/10/01 10:01:36;;;;;;;4.60;2.90;;;;;;;;;;5119711;27;20606;-69
2022/10/01 10:04:06;;;;;;;3.40;2.03;;;;;;;;;;5131693;27;20492;-70
2022/10/01 10:06:42;;;;;;;12.07;8.20;;;;;;;;;;5120505;27;20461;-71
2022/10/01 10:09:15;;;;;;;4.97;3.23;;;;;;;;;;5126522;27;20450;-70
2022/10/01 10:11:42;;;;;;;5.40;4.40;;;;;;;;;;5112352;28;20475;-70
2022/10/01 10:14:15;;;;;;;8.27;4.83;;;;;;;;;;5114491;28;20464;-69
2022/10/01 10:16:52;;;;;;;5.17;3.70;;;;;;;;;;5129689;27;20538;-70
2022/10/01 10:19:31;;;;;;;3.10;2.50;;;;;;;;;;5130498;27;20454;-68
2022/10/01 10:22:13;;;;;;;10.40;5.30;;;;;;;;;;5125600;27;20556;-68
2022/10/01 10:24:41;;;;;;;5.77;3.67;;;;;;;;;;5117277;28;20488;-69
2022/10/01 10:27:28;;;;;;;8.43;5.53;;;;;;;;;;5112198;28;20988;-71
2022/10/01 10:30:28;;;;;;;2.80;2.27;;;;;;;;;;5123493;27;20457;-69
2022/10/01 10:33:07;;;;;;;3.37;2.20;;;;;;;;;;5128926;27;20898;-69
2022/10/01 10:35:35;;;;;;;3.30;2.20;;;;;;;;;;5113438;28;20450;-70
2022/10/01 10:38:03;;;;;;;3.60;2.10;;;;;;;;;;5125525;27;20754;-70
2022/10/01 10:40:40;;;;;;;3.30;2.40;;;;;;;;;;5128510;27;20465;-71
2022/10/01 10:43:19;;;;;;;4.40;2.40;;;;;;;;;;5114001;28;20568;-70
2022/10/01 10:45:46;;;;;;;2.70;2.10;;;;;;;;;;5112316;28;20465;-70
2022/10/01 10:48:17;;;;;;;4.60;2.90;;;;;;;;;;5110890;28;20517;-70
2022/10/01 10:50:47;;;;;;;6.77;3.53;;;;;;;;;;5128257;27;20466;-70
2022/10/01 10:53:23;;;;;;;5.50;3.67;;;;;;;;;;5123727;27;20719;-70
2022/10/01 10:55:54;;;;;;;4.27;3.10;;;;;;;;;;5131659;27;20468;-70
2022/10/01 10:58:25;;;;;;;5.20;3.97;;;;;;;;;;5130907;27;20469;-69
2022/10/01 11:00:56;;;;;;;8.20;7.00;;;;;;;;;;5132618;27;20522;-70
2022/10/01 11:03:26;;;;;;;3.87;2.83;;;;;;;;;;5125136;27;20482;-69
2022/10/01 11:06:14;;;;;;;8.17;6.00;;;;;;;;;;5114779;28;20531;-71
2022/10/01 11:08:43;;;;;;;3.07;2.20;;;;;;;;;;5113874;28;20520;-70
2022/10/01 11:11:17;;;;;;;3.37;2.67;;;;;;;;;;5128823;27;20695;-69
2022/10/01 11:14:04;;;;;;;5.20;2.67;;;;;;;;;;5131953;27;20462;-71
2022/10/01 11:16:37;;;;;;;5.17;3.13;;;;;;;;;;5133649;27;20472;-69
2022/10/01 11:19:14;;;;;;;8.80;5.13;;;;;;;;;;5132363;27;20570;-69
2022/10/01 11:21:56;;;;;;;6.13;4.83;;;;;;;;;;5118618;28;20463;-70
2022/10/01 11:24:44;;;;;;;5.83;3.73;;;;;;;;;;5126291;28;20486;-70
2022/10/01 11:27:16;;;;;;;3.27;1.87;;;;;;;;;;5135918;27;20526;-70
2022/10/01 11:30:11;;;;;;;7.13;4.60;;;;;;;;;;5135612;27;20469;-70
2022/10/01 11:32:40;;;;;;;4.27;3.17;;;;;;;;;;5135718;27;20446;-70
2022/10/01 11:35:25;;;;;;;3.23;2.90;;;;;;;;;;5117003;27;20458;-69
2022/10/01 11:38:00;;;;;;;3.70;2.30;;;;;;;;;;5115111;27;20451;-68
2022/10/01 11:40:41;;;;;;;4.33;2.60;;;;;;;;;;5099077;27;20466;-69
2022/10/01 11:43:23;;;;;;;3.43;2.83;;;;;;;;;;5115482;27;20483;-70
2022/10/01 11:45:59;;;;;;;4.30;2.87;;;;;;;;;;5116143;27;20893;-70
2022/10/01 11:48:33;;;;;;;5.20;4.17;;;;;;;;;;5115575;27;20468;-69
2022/10/01 11:51:07;;;;;;;4.33;2.90;;;;;;;;;;5121620;27;20531;-70
2022/10/01 11:53:43;;;;;;;4.43;2.73;;;;;;;;;;5118991;27;20891;-70
2022/10/01 11:59:06;;;;;;;2.97;2.33;;;;;;;;;;5135253;27;20441;-69
2022/10/01 12:01:36;;;;;;;5.13;2.37;;;;;;;;;;5121109;28;20450;-69
2022/10/01 12:04:16;;;;;;;4.10;2.40;;;;;;;;;;5119629;28;20522;-68
2022/10/01 12:06:52;;;;;;;3.70;2.67;;;;;;;;;;5113731;28;20502;-68
2022/10/01 12:09:23;;;;;;;3.93;2.23;;;;;;;;;;5129368;27;20462;-68
2022/10/01 12:12:07;;;;;;;5.30;2.50;;;;;;;;;;5113784;28;20461;-68
2022/10/01 12:14:43;;;;;;;7.40;3.07;;;;;;;;;;5112756;28;20561;-67
2022/10/01 12:17:19;;;;;;;4.57;2.40;;;;;;;;;;5126451;27;21017;-68
2022/10/01 12:19:51;;;;;;;3.80;2.87;;;;;;;;;;5128017;27;20447;-68
2022/10/01 12:22:21;;;;;;;2.50;1.87;;;;;;;;;;5136035;27;20530;-68
2022/10/01 12:24:48;;;;;;;4.63;2.23;;;;;;;;;;5121070;27;20474;-68
2022/10/01 12:27:28;;;;;;;3.57;2.27;;;;;;;;;;5133154;27;20521;-68
2022/10/01 12:30:09;;;;;;;3.17;2.07;;;;;;;;;;5119509;27;20518;-69
2022/10/01 12:32:44;;;;;;;6.30;2.37;;;;;;;;;;5116536;28;20462;-70
2022/10/01 12:35:24;;;;;;;2.90;2.10;;;;;;;;;;5117977;28;20895;-69
2022/10/01 12:37:59;;;;;;;4.37;2.13;;;;;;;;;;5125900;28;20449;-69
2022/10/01 12:41:15;;;;;;;10.00;2.10;;;;;;;;;;5132757;27;20445;-68
2022/10/01 12:44:13;;;;;;;;;;;;;;;;;;;;;
2022/10/01 12:46:48;;;;;;;2.83;1.50;;;;;;;;;;5116748;28;20462;-70
2022/10/01 12:49:24;;;;;;;14.40;7.90;;;;;;;;;;5125978;27;20480;-69
2022/10/01 12:52:00;;;;;;;3.63;1.70;;;;;;;;;;5121386;27;20877;-70
2022/10/01 12:54:51;;;;;;;3.07;1.83;;;;;;;;;;5122204;27;20907;-70
2022/10/01 12:57:41;;;;;;;;;;;;;;;;;;;;;
2022/10/01 13:00:16;;;;;;;5.20;1.87;;;;;;;;;;5115821;28;20469;-70
2022/10/01 13:02:52;;;;;;;3.03;1.20;;;;;;;;;;5114702;28;21021;-69
2022/10/01 13:05:23;;;;;;;4.83;1.40;;;;;;;;;;5115953;28;20473;-68
2022/10/01 13:07:56;;;;;;;2.33;1.30;;;;;;;;;;5115228;28;20453;-69
2022/10/01 13:10:32;;;;;;;8.80;2.10;;;;;;;;;;5114288;28;21233;-70
2022/10/01 13:13:03;;;;;;;7.90;2.83;;;;;;;;;;5113720;28;20867;-70
2022/10/01 13:15:36;;;;;;;5.73;1.67;;;;;;;;;;5115351;27;20467;-70
2022/10/01 13:18:09;;;;;;;3.80;1.67;;;;;;;;;;5118136;28;20536;-69
2022/10/01 13:20:42;;;;;;;2.93;1.43;;;;;;;;;;5118775;28;20457;-70
2022/10/01 13:23:10;;;;;;;5.40;3.07;;;;;;;;;;5131336;27;20488;-69
2022/10/01 13:25:43;;;;;;;8.80;3.10;;;;;;;;;;5125047;28;20851;-70
2022/10/01 13:28:20;;;;;;;7.70;2.70;;;;;;;;;;5116402;27;20442;-68
2022/10/01 13:30:57;;;;;;;2.30;1.27;;;;;;;;;;5113932;28;20458;-69
2022/10/01 13:33:31;;;;;;;4.83;2.30;;;;;;;;;;5120084;27;20872;-69
2022/10/01 13:36:04;;;;;;;4.43;1.70;;;;;;;;;;5130890;27;20470;-70
2022/10/01 13:38:41;;;;;;;4.47;1.60;;;;;;;;;;5133007;27;20442;-69
2022/10/01 13:41:18;;;;;;;5.90;2.90;;;;;;;;;;5131544;27;21517;-71
2022/10/01 13:43:51;;;;;;;6.30;3.10;;;;;;;;;;5122399;27;21085;-70
2022/10/01 13:46:18;;;;;;;6.93;3.23;;;;;;;;;;5116825;27;20451;-69
2022/10/01 13:48:48;;;;;;;6.37;2.10;;;;;;;;;;5124915;27;20751;-69
2022/10/01 13:51:16;;;;;;;5.50;1.73;;;;;;;;;;5130982;27;20755;-69
2022/10/01 13:53:49;;;;;;;9.63;2.30;;;;;;;;;;5124725;27;20990;-69
2022/10/01 13:56:28;;;;;;;10.13;3.40;;;;;;;;;;5111594;27;20815;-69
2022/10/01 13:58:55;;;;;;;6.37;4.33;;;;;;;;;;5116483;27;20453;-69
2022/10/01 14:01:27;;;;;;;6.70;2.50;;;;;;;;;;5130122;27;20454;-70
2022/10/01 14:03:58;;;;;;;7.87;4.63;;;;;;;;;;5129731;27;20482;-70
2022/10/01 14:06:29;;;;;;;3.57;2.43;;;;;;;;;;5132749;27;20529;-70
2022/10/01 14:09:01;;;;;;;4.30;2.10;;;;;;;;;;5126738;27;20488;-70
2022/10/01 14:17:06;;;;;;;6.93;3.03;;;;;;;;;;5131202;27;20491;-70
2022/10/01 14:19:34;;;;;;;4.97;1.23;;;;;;;;;;5120504;27;20461;-70
2022/10/01 14:22:07;;;;;;;8.50;3.00;;;;;;;;;;5131960;27;20454;-71
2022/10/01 14:24:42;;;;;;;6.30;2.53;;;;;;;;;;5124903;27;20565;-72
2022/10/01 14:27:15;;;;;;;8.33;2.50;;;;;;;;;;5116653;27;20448;-71
2022/10/01 14:29:47;;;;;;;5.23;3.30;;;;;;;;;;5122611;27;20454;-71
2022/10/01 14:32:21;;;;;;;4.27;2.27;;;;;;;;;;5121070;27;20465;-72
2022/10/01 14:35:02;;;;;;;3.57;1.80;;;;;;;;;;5121290;27;20978;-71
2022/10/01 14:37:31;;;;;;;4.63;2.60;;;;;;;;;;5125843;27;20557;-71
2022/10/01 14:40:13;;;;;;;3.63;1.70;;;;;;;;;;5124531;27;20457;-71
2022/10/01 14:42:41;;;;;;;2.30;1.20;;;;;;;;;;5133144;27;20444;-70
2022/10/01 14:45:15;;;;;;;4.90;1.60;;;;;;;;;;5135341;27;20469;-70
2022/10/01 14:47:42;;;;;;;2.80;1.30;;;;;;;;;;5130230;27;20442;-70
2022/10/01 14:50:18;;;;;;;2.60;1.20;;;;;;;;;;5117541;28;20454;-70
2022/10/01 14:52:50;;;;;;;2.30;1.40;;;;;;;;;;5124321;27;20448;-71
2022/10/01 14:55:21;;;;;;;4.13;2.10;;;;;;;;;;5157389;27;20474;-71
2022/10/01 14:57:50;;;;;;;3.50;2.13;;;;;;;;;;5156778;27;20517;-71
2022/10/01 15:00:18;;;;;;;2.30;1.60;;;;;;;;;;5150441;27;20938;-70
2022/10/01 15:02:48;;;;;;;2.70;1.80;;;;;;;;;;5122666;27;20446;-70
2022/10/01 15:05:25;;;;;;;5.57;1.23;;;;;;;;;;5130144;27;20458;-70
2022/10/01 15:07:52;;;;;;;4.43;1.50;;;;;;;;;;5128965;28;20865;-70
2022/10/01 15:10:20;;;;;;;3.77;1.70;;;;;;;;;;5124977;27;20493;-71
2022/10/01 15:12:50;;;;;;;3.80;1.57;;;;;;;;;;5124907;27;21113;-71
2022/10/01 15:15:25;;;;;;;3.10;1.50;;;;;;;;;;5132845;27;20517;-70
2022/10/01 15:17:53;;;;;;;4.57;1.77;;;;;;;;;;5130224;27;20442;-69
2022/10/01 15:20:28;;;;;;;5.47;2.13;;;;;;;;;;5112941;28;20462;-69
2022/10/01 15:22:55;;;;;;;2.30;1.30;;;;;;;;;;5125117;27;20458;-71
2022/10/01 15:25:27;;;;;;;5.03;1.73;;;;;;;;;;5122911;27;20454;-70